createdAt,value
2019-03-03T00:00:08.977Z,6.85
2019-03-03T00:02:35.583Z,6.22
2019-03-03T00:05:02.486Z,5.08
2019-03-03T00:07:29.075Z,4.15
2019-03-03T00:09:55.720Z,4.50
2019-03-03T00:12:22.287Z,6.15
2019-03-03T00:14:49.069Z,5.78
2019-03-03T00:17:16.134Z,5.42
2019-03-03T00:19:43.158Z,5.53
2019-03-03T00:22:09.866Z,4.67
2019-03-03T00:24:38.111Z,5.17
2019-03-03T00:27:04.677Z,5.60
2019-03-03T00:29:31.310Z,5.17
2019-03-03T00:31:57.900Z,5.05
2019-03-03T00:34:24.796Z,4.17
2019-03-03T00:37:13.447Z,4.87
2019-03-03T00:40:06.448Z,4.80
2019-03-03T00:42:38.718Z,4.17
2019-03-03T00:45:29.548Z,3.75
2019-03-03T00:48:09.470Z,5.22
2019-03-03T00:51:11.144Z,4.20
2019-03-03T00:53:54.035Z,3.98
2019-03-03T00:56:26.001Z,4.35
2019-03-03T00:59:10.890Z,3.47
2019-03-03T01:02:03.159Z,3.75
2019-03-03T01:04:44.379Z,4.05
2019-03-03T01:07:19.008Z,2.92
2019-03-03T01:09:56.393Z,3.12
2019-03-03T01:12:33.162Z,3.90
2019-03-03T01:15:18.305Z,3.90
2019-03-03T01:17:50.914Z,4.03
2019-03-03T01:20:23.087Z,3.80
2019-03-03T01:22:55.359Z,3.08
2019-03-03T01:25:22.048Z,3.47
2019-03-03T01:27:48.625Z,3.62
2019-03-03T01:30:15.344Z,1.87
2019-03-03T01:32:41.927Z,3.20
2019-03-03T01:35:08.723Z,3.47
2019-03-03T01:37:35.313Z,3.10
2019-03-03T01:40:02.022Z,2.58
2019-03-03T01:42:28.611Z,2.42
2019-03-03T01:44:55.206Z,3.22
2019-03-03T01:47:21.811Z,2.15
2019-03-03T01:49:48.598Z,2.27
2019-03-03T01:52:15.185Z,1.87
2019-03-03T01:54:41.789Z,1.45
2019-03-03T01:57:08.453Z,2.02
2019-03-03T01:59:35.162Z,2.92
2019-03-03T02:02:01.821Z,2.27
2019-03-03T02:04:28.403Z,1.95
2019-03-03T02:06:55.153Z,2.30
2019-03-03T02:09:21.724Z,1.80
2019-03-03T02:11:48.527Z,1.57
2019-03-03T02:14:15.223Z,2.22
2019-03-03T02:16:41.821Z,2.30
2019-03-03T02:19:08.391Z,2.55
2019-03-03T02:21:35.303Z,2.22
2019-03-03T02:24:01.899Z,2.02
2019-03-03T02:26:28.575Z,2.35
2019-03-03T02:28:55.366Z,1.90
2019-03-03T02:31:22.059Z,2.27
2019-03-03T02:33:48.805Z,2.10
2019-03-03T02:36:15.704Z,1.82
2019-03-03T02:38:42.290Z,2.62
2019-03-03T02:41:09.008Z,2.12
2019-03-03T02:43:40.065Z,2.25
2019-03-03T02:46:06.748Z,2.90
2019-03-03T02:48:33.315Z,2.50
2019-03-03T02:50:59.910Z,2.27
2019-03-03T02:53:26.476Z,2.27
2019-03-03T02:55:53.039Z,2.42
2019-03-03T02:58:19.618Z,2.40
2019-03-03T03:00:53.548Z,1.75
2019-03-03T03:06:05.855Z,1.75
2019-03-03T03:08:36.881Z,2.10
2019-03-03T03:11:17.688Z,2.55
2019-03-03T03:14:13.359Z,1.50
2019-03-03T03:17:11.388Z,2.77
2019-03-03T03:19:55.826Z,2.20
2019-03-03T03:22:51.175Z,2.40
2019-03-03T03:25:49.284Z,2.58
2019-03-03T03:28:35.498Z,2.35
2019-03-03T03:31:06.658Z,3.10
2019-03-03T03:33:39.950Z,2.50
2019-03-03T03:36:29.034Z,2.35
2019-03-03T03:39:13.153Z,2.30
2019-03-03T03:42:08.082Z,2.90
2019-03-03T03:44:44.944Z,1.47
2019-03-03T03:47:43.325Z,2.92
2019-03-03T03:50:28.285Z,2.98
2019-03-03T03:53:21.155Z,3.27
2019-03-03T03:56:22.648Z,3.10
2019-03-03T03:59:07.354Z,3.35
2019-03-03T04:02:06.044Z,3.33
2019-03-03T04:04:55.136Z,2.33
2019-03-03T04:07:37.538Z,1.98
2019-03-03T04:10:27.099Z,2.92
2019-03-03T04:13:10.441Z,2.87
2019-03-03T04:15:54.404Z,1.92
2019-03-03T04:18:46.731Z,3.40
2019-03-03T04:21:39.174Z,2.58
2019-03-03T04:24:23.190Z,2.75
2019-03-03T04:27:04.277Z,2.95
2019-03-03T04:29:35.411Z,3.17
2019-03-03T04:32:09.759Z,3.40
2019-03-03T04:34:44.452Z,2.90
2019-03-03T04:37:29.192Z,3.25
2019-03-03T04:40:27.281Z,3.25
2019-03-03T04:43:08.686Z,3.67
2019-03-03T04:45:55.059Z,3.60
2019-03-03T04:48:39.467Z,3.83
2019-03-03T04:54:08.090Z,3.62
2019-03-03T04:57:00.463Z,4.80
2019-03-03T04:59:37.759Z,4.40
2019-03-03T05:02:17.208Z,4.17
2019-03-03T05:04:48.753Z,5.10
2019-03-03T05:07:33.710Z,4.17
2019-03-03T05:10:25.806Z,5.95
2019-03-03T05:13:03.759Z,5.17
2019-03-03T05:15:48.675Z,5.45
2019-03-03T05:18:37.886Z,5.12
2019-03-03T05:21:04.535Z,6.80
2019-03-03T05:23:31.093Z,6.08
2019-03-03T05:25:57.667Z,6.30
2019-03-03T05:28:24.374Z,6.05
2019-03-03T05:30:50.936Z,6.42
2019-03-03T05:33:17.520Z,6.47
2019-03-03T05:35:44.219Z,5.30
2019-03-03T05:38:10.897Z,7.15
2019-03-03T05:40:37.565Z,6.47
2019-03-03T05:43:04.167Z,7.25
2019-03-03T05:45:30.739Z,7.30
2019-03-03T05:47:57.328Z,7.40
2019-03-03T05:50:23.911Z,6.30
2019-03-03T05:52:50.494Z,6.00
2019-03-03T05:55:17.055Z,8.13
2019-03-03T05:57:43.756Z,7.60
2019-03-03T06:00:11.844Z,7.78
2019-03-03T06:02:38.425Z,7.00
2019-03-03T06:05:05.392Z,7.20
2019-03-03T06:07:31.963Z,7.03
2019-03-03T06:09:58.539Z,5.45
2019-03-03T06:12:25.133Z,5.60
2019-03-03T06:14:51.711Z,7.00
2019-03-03T06:17:18.431Z,7.10
2019-03-03T06:19:45.010Z,5.62
2019-03-03T06:22:11.581Z,5.67
2019-03-03T06:24:38.270Z,7.58
2019-03-03T06:27:04.812Z,8.65
2019-03-03T06:29:31.371Z,7.15
2019-03-03T06:31:57.948Z,8.15
2019-03-03T06:34:24.575Z,7.40
2019-03-03T06:36:51.227Z,8.80
2019-03-03T06:39:17.888Z,6.37
2019-03-03T06:41:44.475Z,7.22
2019-03-03T06:44:11.054Z,9.45
2019-03-03T06:46:37.793Z,6.80
2019-03-03T06:49:04.487Z,8.83
2019-03-03T06:52:55.019Z,7.78
2019-03-03T06:55:21.374Z,7.05
2019-03-03T06:57:47.624Z,8.55
2019-03-03T07:00:15.123Z,7.45
2019-03-03T07:02:41.496Z,7.25
2019-03-03T07:05:08.849Z,8.15
2019-03-03T07:07:35.166Z,8.28
2019-03-03T07:10:01.710Z,7.67
2019-03-03T07:12:27.951Z,9.05
2019-03-03T07:14:54.252Z,7.67
2019-03-03T07:17:20.516Z,7.33
2019-03-03T07:19:46.848Z,6.50
2019-03-03T07:22:13.090Z,7.78
2019-03-03T07:24:39.586Z,7.90
2019-03-03T07:27:05.822Z,3.27
2019-03-03T07:29:32.143Z,7.78
2019-03-03T07:31:58.414Z,7.40
2019-03-03T07:34:24.719Z,8.03
2019-03-03T07:36:50.951Z,7.25
2019-03-03T07:39:17.834Z,8.40
2019-03-03T07:41:44.282Z,8.20
2019-03-03T07:44:10.743Z,7.62
2019-03-03T07:46:37.044Z,7.35
2019-03-03T07:49:03.419Z,7.35
2019-03-03T07:51:29.727Z,8.65
2019-03-03T07:53:55.994Z,6.12
2019-03-03T07:56:22.302Z,7.30
2019-03-03T07:58:48.535Z,7.65
2019-03-03T08:01:14.952Z,5.72
2019-03-03T08:03:41.291Z,7.30
2019-03-03T08:06:07.754Z,7.33
2019-03-03T08:08:34.007Z,7.40
2019-03-03T08:11:00.386Z,5.10
2019-03-03T08:13:26.632Z,7.08
2019-03-03T08:15:53.138Z,7.30
2019-03-03T08:18:19.387Z,4.65
2019-03-03T08:20:46.810Z,6.80
2019-03-03T08:23:13.340Z,7.30
2019-03-03T08:25:39.770Z,8.33
2019-03-03T08:28:06.014Z,6.70
2019-03-03T08:30:32.353Z,7.90
2019-03-03T08:32:58.600Z,8.93
2019-03-03T08:35:25.132Z,6.00
2019-03-03T08:37:51.398Z,7.55
2019-03-03T08:40:17.783Z,7.87
2019-03-03T08:42:44.067Z,5.03
2019-03-03T08:45:10.625Z,8.28
2019-03-03T08:47:37.194Z,7.60
2019-03-03T08:50:04.294Z,7.65
2019-03-03T08:52:30.782Z,9.63
2019-03-03T08:54:59.902Z,8.68
2019-03-03T08:57:25.194Z,8.58
2019-03-03T08:59:51.615Z,8.55
2019-03-03T09:02:17.873Z,8.65
2019-03-03T09:07:21.333Z,7.62
2019-03-03T09:10:06.635Z,7.53
2019-03-03T09:12:53.111Z,6.12
2019-03-03T09:15:45.409Z,8.38
2019-03-03T09:18:32.042Z,8.28
2019-03-03T09:21:17.644Z,7.05
2019-03-03T09:23:57.290Z,7.55
2019-03-03T09:26:42.320Z,7.15
2019-03-03T09:29:31.499Z,4.95
2019-03-03T09:32:23.802Z,7.00
2019-03-03T09:35:12.968Z,6.75
2019-03-03T09:37:59.414Z,5.15
2019-03-03T09:40:39.163Z,7.20
2019-03-03T09:43:14.295Z,5.25
2019-03-03T09:46:03.445Z,7.17
2019-03-03T09:48:52.848Z,6.95
2019-03-03T09:51:29.306Z,5.55
2019-03-03T09:54:30.572Z,5.15
2019-03-03T09:57:05.389Z,6.42
2019-03-03T09:59:43.071Z,4.97
2019-03-03T10:02:32.074Z,6.53
2019-03-03T10:05:18.452Z,7.67
2019-03-03T10:08:07.564Z,6.85
2019-03-03T10:10:52.695Z,7.15
2019-03-03T10:13:57.425Z,6.62
2019-03-03T10:16:52.605Z,6.12
2019-03-03T10:19:41.887Z,4.90
2019-03-03T10:22:25.304Z,5.20
2019-03-03T10:25:04.441Z,5.15
2019-03-03T10:27:42.475Z,6.40
2019-03-03T10:30:37.448Z,5.53
2019-03-03T10:33:25.592Z,5.67
2019-03-03T10:36:02.683Z,6.20
2019-03-03T10:38:36.732Z,4.17
2019-03-03T10:41:17.042Z,5.35
2019-03-03T10:44:09.371Z,4.65
2019-03-03T10:46:43.296Z,3.65
2019-03-03T10:49:32.370Z,5.70
2019-03-03T10:52:17.166Z,5.45
2019-03-03T10:55:06.696Z,5.35
2019-03-03T10:57:45.541Z,5.92
2019-03-03T11:00:24.028Z,6.17
2019-03-03T11:03:22.307Z,6.12
2019-03-03T11:06:09.109Z,5.87
2019-03-03T11:08:41.398Z,5.80
2019-03-03T11:11:27.287Z,6.70
2019-03-03T11:14:10.069Z,6.25
2019-03-03T11:17:02.715Z,4.55
2019-03-03T11:19:37.508Z,3.45
2019-03-03T11:22:22.755Z,6.17
2019-03-03T11:25:14.106Z,6.22
2019-03-03T11:28:00.427Z,6.10
2019-03-03T11:30:52.735Z,6.58
2019-03-03T11:33:37.826Z,5.97
2019-03-03T11:36:24.342Z,6.37
2019-03-03T11:39:10.925Z,5.47
2019-03-03T11:42:03.408Z,6.78
2019-03-03T11:44:51.082Z,6.30
2019-03-03T11:47:23.743Z,8.40
2019-03-03T11:50:12.922Z,5.83
2019-03-03T11:52:46.093Z,7.05
2019-03-03T11:55:29.737Z,7.30
2019-03-03T11:58:24.855Z,5.58
2019-03-03T12:00:59.259Z,6.12
2019-03-03T12:03:57.433Z,4.50
2019-03-03T12:06:35.783Z,4.10
2019-03-03T12:09:26.018Z,2.75
2019-03-03T12:12:12.536Z,3.80
2019-03-03T12:14:46.466Z,3.35
2019-03-03T12:17:32.867Z,4.35
2019-03-03T12:20:28.062Z,2.15
2019-03-03T12:23:09.351Z,4.22
2019-03-03T12:25:54.254Z,3.80
2019-03-03T12:28:40.549Z,4.72
2019-03-03T12:31:27.051Z,4.10
2019-03-03T12:34:06.658Z,2.95
2019-03-03T12:36:54.136Z,4.22
2019-03-03T12:39:30.816Z,3.90
2019-03-03T12:42:14.387Z,4.08
2019-03-03T12:45:06.593Z,4.10
2019-03-03T12:47:51.790Z,4.37
2019-03-03T12:50:36.902Z,2.17
2019-03-03T12:53:23.440Z,4.53
2019-03-03T12:56:01.279Z,3.90
2019-03-03T12:58:41.734Z,5.20
2019-03-03T13:01:33.961Z,4.22
2019-03-03T13:04:23.069Z,4.03
2019-03-03T13:07:15.391Z,4.00
2019-03-03T13:10:03.001Z,3.98
2019-03-03T13:12:55.837Z,4.33
2019-03-03T13:16:00.612Z,4.53
2019-03-03T13:18:45.626Z,4.97
2019-03-03T13:21:32.314Z,4.92
2019-03-03T13:24:21.844Z,4.60
2019-03-03T13:28:56.934Z,4.65
2019-03-03T13:31:29.902Z,4.70
2019-03-03T13:34:16.282Z,4.45
2019-03-03T13:36:49.268Z,6.08
2019-03-03T13:39:40.360Z,5.97
2019-03-03T13:42:29.455Z,5.03
2019-03-03T13:44:56.057Z,5.60
2019-03-03T13:47:22.705Z,5.28
2019-03-03T13:49:49.535Z,5.70
2019-03-03T13:52:16.419Z,4.97
2019-03-03T13:54:43.112Z,5.40
2019-03-03T13:57:09.796Z,3.70
2019-03-03T13:59:36.491Z,5.30
2019-03-03T14:02:04.521Z,5.35
2019-03-03T14:04:31.285Z,3.20
2019-03-03T14:06:58.223Z,5.10
2019-03-03T14:09:24.983Z,5.90
2019-03-03T14:11:51.592Z,7.50
2019-03-03T14:14:18.660Z,6.95
2019-03-03T14:16:45.306Z,6.15
2019-03-03T14:19:12.159Z,6.40
2019-03-03T14:21:39.002Z,6.22
2019-03-03T14:24:05.570Z,5.78
2019-03-03T14:26:32.385Z,6.92
2019-03-03T14:28:59.281Z,7.03
2019-03-03T14:31:25.918Z,2.60
2019-03-03T14:33:52.601Z,7.00
2019-03-03T14:36:19.443Z,6.42
2019-03-03T14:38:46.164Z,7.08
2019-03-03T14:41:12.916Z,7.70
2019-03-03T14:43:39.805Z,7.62
2019-03-03T14:46:06.600Z,7.65
2019-03-03T14:48:33.413Z,7.17
2019-03-03T14:51:00.163Z,6.97
2019-03-03T14:53:26.849Z,6.03
2019-03-03T14:55:53.422Z,7.28
2019-03-03T14:58:20.268Z,6.95
2019-03-03T15:00:47.129Z,7.10
2019-03-03T15:03:13.817Z,7.05
2019-03-03T15:05:40.505Z,7.45
2019-03-03T15:08:07.302Z,8.45
2019-03-03T15:10:34.007Z,8.03
2019-03-03T15:13:00.868Z,6.53
2019-03-03T15:15:28.535Z,7.12
2019-03-03T15:17:55.214Z,6.67
2019-03-03T15:20:22.282Z,6.35
2019-03-03T15:22:49.207Z,6.35
2019-03-03T15:25:16.198Z,6.90
2019-03-03T15:27:43.244Z,5.75
2019-03-03T15:30:11.596Z,6.58
2019-03-03T15:32:38.185Z,6.35
2019-03-03T15:35:05.382Z,5.22
2019-03-03T15:37:32.128Z,5.97
2019-03-03T15:39:58.712Z,5.50
2019-03-03T15:42:25.507Z,6.75
2019-03-03T15:44:52.101Z,5.92
2019-03-03T15:47:18.721Z,4.95
2019-03-03T15:49:45.419Z,5.92
2019-03-03T15:52:12.010Z,6.08
2019-03-03T15:54:38.735Z,6.30
2019-03-03T15:57:05.331Z,3.90
2019-03-03T15:59:32.019Z,3.17
2019-03-03T16:01:58.770Z,6.90
2019-03-03T16:04:25.395Z,4.83
2019-03-03T16:06:52.131Z,4.25
2019-03-03T16:09:19.016Z,4.33
2019-03-03T16:11:45.687Z,4.40
2019-03-03T16:14:12.468Z,4.42
2019-03-03T16:16:39.342Z,4.33
2019-03-03T16:19:06.215Z,4.50
2019-03-03T16:21:33.105Z,3.72
2019-03-03T16:24:00.391Z,3.42
2019-03-03T16:27:51.543Z,4.40
2019-03-03T16:30:18.716Z,3.98
2019-03-03T16:32:45.667Z,3.70
2019-03-03T16:35:13.568Z,3.65
2019-03-03T16:37:40.456Z,2.35
2019-03-03T16:40:09.863Z,4.22
2019-03-03T16:42:36.712Z,2.85
2019-03-03T16:45:04.038Z,3.95
2019-03-03T16:47:30.880Z,2.58
2019-03-03T16:51:59.884Z,4.12
2019-03-03T16:54:26.843Z,3.30
2019-03-03T16:56:53.655Z,3.15
2019-03-03T16:59:20.419Z,2.90
2019-03-03T17:01:47.064Z,3.08
2019-03-03T17:04:13.922Z,3.52
2019-03-03T17:06:40.733Z,4.62
2019-03-03T17:09:07.688Z,2.58
2019-03-03T17:11:34.514Z,3.27
2019-03-03T17:14:01.664Z,3.33
2019-03-03T17:17:14.912Z,3.35
2019-03-03T17:19:41.547Z,2.60
2019-03-03T17:22:08.557Z,3.52
2019-03-03T17:24:35.338Z,3.22
2019-03-03T17:27:02.049Z,2.17
2019-03-03T17:29:28.975Z,3.42
2019-03-03T17:31:55.899Z,3.87
2019-03-03T17:34:22.682Z,2.35
2019-03-03T17:36:49.670Z,3.62
2019-03-03T17:39:16.459Z,2.58
2019-03-03T17:41:43.183Z,4.47
2019-03-03T17:44:09.887Z,2.55
2019-03-03T17:46:36.556Z,3.60
2019-03-03T17:50:24.662Z,3.30
2019-03-03T17:53:34.652Z,3.22
2019-03-03T17:56:01.594Z,2.85
2019-03-03T17:58:28.515Z,3.20
2019-03-03T18:00:55.252Z,3.65
2019-03-03T18:03:21.931Z,3.30
2019-03-03T18:05:48.799Z,3.45
2019-03-03T18:08:15.609Z,3.77
2019-03-03T18:10:42.478Z,3.25
2019-03-03T18:13:09.174Z,3.05
2019-03-03T18:15:47.789Z,2.98
2019-03-03T18:18:14.691Z,2.83
2019-03-03T18:20:41.368Z,2.80
2019-03-03T18:23:08.174Z,3.33
2019-03-03T18:25:34.961Z,2.95
2019-03-03T18:28:01.570Z,3.42
2019-03-03T18:30:28.359Z,3.42
2019-03-03T18:32:55.196Z,2.83
2019-03-03T18:35:21.924Z,3.00
2019-03-03T18:37:48.745Z,3.08
2019-03-03T18:40:16.949Z,3.20
2019-03-03T18:42:44.253Z,3.05
2019-03-03T18:45:11.861Z,2.77
2019-03-03T18:47:39.235Z,3.60
2019-03-03T18:50:08.503Z,2.20
2019-03-03T18:52:35.218Z,3.02
2019-03-03T18:55:02.304Z,4.00
2019-03-03T18:57:28.963Z,3.30
2019-03-03T18:59:55.638Z,3.45
2019-03-03T19:02:22.579Z,3.75
2019-03-03T19:04:49.845Z,3.80
2019-03-03T19:07:16.650Z,3.10
2019-03-03T19:09:43.761Z,3.40
2019-03-03T19:12:10.421Z,2.90
2019-03-03T19:14:37.009Z,2.85
2019-03-03T19:17:03.763Z,3.60
2019-03-03T19:19:30.472Z,3.12
2019-03-03T19:21:57.161Z,3.00
2019-03-03T19:24:23.868Z,3.40
2019-03-03T19:26:50.556Z,3.50
2019-03-03T19:29:17.191Z,2.02
2019-03-03T19:31:43.944Z,3.27
2019-03-03T19:34:10.870Z,3.00
2019-03-03T19:36:37.728Z,2.45
2019-03-03T19:39:04.961Z,2.80
2019-03-03T19:41:31.692Z,3.00
2019-03-03T19:43:58.316Z,2.12
2019-03-03T19:46:24.989Z,3.05
2019-03-03T19:48:51.737Z,2.92
2019-03-03T19:51:18.576Z,3.27
2019-03-03T19:53:45.246Z,3.15
2019-03-03T19:56:12.157Z,3.12
2019-03-03T19:58:38.852Z,2.90
2019-03-03T20:01:06.021Z,3.62
2019-03-03T20:03:32.852Z,3.12
2019-03-03T20:06:01.629Z,3.80
2019-03-03T20:08:28.507Z,3.35
2019-03-03T20:12:57.915Z,3.92
2019-03-03T20:15:24.772Z,3.52
2019-03-03T20:17:51.527Z,3.83
2019-03-03T20:20:18.862Z,2.75
2019-03-03T20:22:45.679Z,3.70
2019-03-03T20:25:13.131Z,4.35
2019-03-03T20:27:40.946Z,3.67
2019-03-03T20:30:10.960Z,3.30
2019-03-03T20:32:37.918Z,3.33
2019-03-03T20:35:05.029Z,3.30
2019-03-03T20:40:34.686Z,3.58
2019-03-03T20:43:01.454Z,3.58
2019-03-03T20:45:28.280Z,3.20
2019-03-03T20:47:55.109Z,4.28
2019-03-03T20:50:21.838Z,3.20
2019-03-03T20:52:48.709Z,3.20
2019-03-03T20:55:16.655Z,2.90
2019-03-03T20:57:43.426Z,3.83
2019-03-03T21:00:12.990Z,3.60
2019-03-03T21:02:39.930Z,3.70
2019-03-03T21:05:06.850Z,3.30
2019-03-03T21:07:33.886Z,3.00
2019-03-03T21:10:00.553Z,3.35
2019-03-03T21:12:27.171Z,4.10
2019-03-03T21:14:53.956Z,2.85
2019-03-03T21:17:20.706Z,3.72
2019-03-03T21:19:47.411Z,3.55
2019-03-03T21:22:14.257Z,1.77
2019-03-03T21:24:40.851Z,3.45
2019-03-03T21:27:07.550Z,3.25
2019-03-03T21:29:34.124Z,3.22
2019-03-03T21:32:00.725Z,3.72
2019-03-03T21:34:27.435Z,3.15
2019-03-03T21:36:54.129Z,3.52
2019-03-03T21:39:20.728Z,3.00
2019-03-03T21:41:47.476Z,3.60
2019-03-03T21:44:14.261Z,3.10
2019-03-03T21:46:40.871Z,3.08
2019-03-03T21:49:07.487Z,3.33
2019-03-03T21:51:34.165Z,3.05
2019-03-03T21:54:00.844Z,2.70
2019-03-03T21:56:27.641Z,3.17
2019-03-03T21:58:54.217Z,2.70
2019-03-03T22:01:21.253Z,2.85
2019-03-03T22:03:47.869Z,2.85
2019-03-03T22:06:15.045Z,2.87
2019-03-03T22:08:41.747Z,2.45
2019-03-03T22:11:08.363Z,2.30
2019-03-03T22:13:34.956Z,2.90
2019-03-03T22:16:01.640Z,2.85
2019-03-03T22:18:28.291Z,2.70
2019-03-03T22:20:55.108Z,2.45
2019-03-03T22:23:21.685Z,3.50
2019-03-03T22:25:48.436Z,2.52
2019-03-03T22:28:15.558Z,2.90
2019-03-03T22:30:42.144Z,2.83
2019-03-03T22:33:08.769Z,1.90
2019-03-03T22:35:35.538Z,2.65
2019-03-03T22:38:02.280Z,3.00
2019-03-03T22:40:29.421Z,2.70
2019-03-03T22:42:56.231Z,2.58
2019-03-03T22:45:22.977Z,2.75
2019-03-03T22:47:49.840Z,2.90
2019-03-03T22:50:16.629Z,2.40
2019-03-03T22:52:43.264Z,1.62
2019-03-03T22:55:10.338Z,3.10
2019-03-03T22:57:37.035Z,2.42
2019-03-03T23:00:12.740Z,2.15
2019-03-03T23:02:39.572Z,2.72
2019-03-03T23:05:50.337Z,2.60
2019-03-03T23:08:25.664Z,2.20
2019-03-03T23:11:18.532Z,2.70
2019-03-03T23:14:19.995Z,2.52
2019-03-03T23:17:40.599Z,2.40
2019-03-03T23:20:30.744Z,2.45
2019-03-03T23:23:48.936Z,2.45
2019-03-03T23:26:16.816Z,1.72
2019-03-03T23:28:43.667Z,1.95
2019-03-03T23:31:10.398Z,2.17
2019-03-03T23:33:37.007Z,2.30
2019-03-03T23:36:03.805Z,1.50
2019-03-03T23:38:30.530Z,1.65
2019-03-03T23:40:57.567Z,2.25
2019-03-03T23:43:24.260Z,2.30
2019-03-03T23:45:50.943Z,2.02
2019-03-03T23:48:17.692Z,2.20
2019-03-03T23:50:44.373Z,2.27
2019-03-03T23:53:10.964Z,2.42
2019-03-03T23:55:37.769Z,2.10
2019-03-03T23:58:04.501Z,2.17
